createdAt,value
2022-11-20T00:02:22.367Z,68.9
2022-11-20T00:07:17.119Z,68.9
2022-11-20T00:12:11.892Z,69.1
2022-11-20T00:17:06.343Z,69.5
2022-11-20T00:22:01.046Z,69.4
2022-11-20T00:26:56.057Z,69.7
2022-11-20T00:31:50.460Z,69.5
2022-11-20T00:36:45.331Z,69.9
2022-11-20T00:41:39.481Z,69.9
2022-11-20T00:46:34.070Z,69.8
2022-11-20T00:51:28.655Z,70.1
2022-11-20T00:56:23.338Z,69.9
2022-11-20T01:01:18.325Z,70.1
2022-11-20T01:06:13.154Z,70.3
2022-11-20T01:11:07.930Z,70.2
2022-11-20T01:16:02.848Z,70.3
2022-11-20T01:20:56.887Z,70.5
2022-11-20T01:25:50.911Z,70.1
2022-11-20T01:30:45.031Z,70.2
2022-11-20T01:35:39.559Z,69.9
2022-11-20T01:40:33.838Z,69.9
2022-11-20T01:45:28.461Z,70
2022-11-20T01:50:23.276Z,69.8
2022-11-20T01:55:17.960Z,70
2022-11-20T02:00:11.706Z,70
2022-11-20T02:05:06.371Z,69.6
2022-11-20T02:10:00.955Z,69.9
2022-11-20T02:14:55.851Z,69.8
2022-11-20T02:19:50.392Z,70.4
2022-11-20T02:24:45.535Z,70.4
2022-11-20T02:29:40.046Z,70.5
2022-11-20T02:34:34.653Z,70.4
2022-11-20T02:39:29.205Z,70
2022-11-20T02:44:23.904Z,70.2
2022-11-20T02:49:18.623Z,69.4
2022-11-20T02:54:12.594Z,70.2
2022-11-20T02:59:07.156Z,70.1
2022-11-20T03:04:01.890Z,70.7
2022-11-20T03:08:56.482Z,70.9
2022-11-20T03:13:51.242Z,70.5
2022-11-20T03:18:45.720Z,70.6
2022-11-20T03:23:40.609Z,70.6
2022-11-20T03:28:35.282Z,70.3
2022-11-20T03:33:29.904Z,70.7
2022-11-20T03:38:24.338Z,70.9
2022-11-20T03:43:19.107Z,70.2
2022-11-20T03:48:13.787Z,70.3
2022-11-20T03:53:08.623Z,71.1
2022-11-20T03:58:03.545Z,70
2022-11-20T04:02:58.009Z,70
2022-11-20T04:07:52.522Z,70
2022-11-20T04:12:47.211Z,70.1
2022-11-20T04:17:41.936Z,70.2
2022-11-20T04:22:36.703Z,70.1
2022-11-20T04:27:31.353Z,70.3
2022-11-20T04:32:26.062Z,70.2
2022-11-20T04:37:20.942Z,70
2022-11-20T04:42:15.692Z,70.8
2022-11-20T04:47:10.137Z,71.2
2022-11-20T04:52:08.473Z,71.6
2022-11-20T04:57:02.562Z,71.3
2022-11-20T05:01:57.576Z,70.8
2022-11-20T05:06:52.313Z,70.5
2022-11-20T05:11:50.386Z,70.2
2022-11-20T05:16:41.866Z,70.3
2022-11-20T05:21:36.613Z,69.6
2022-11-20T05:26:31.659Z,69.1
2022-11-20T05:31:27.912Z,68.7
2022-11-20T05:36:20.634Z,68.4
2022-11-20T05:41:15.567Z,68.6
2022-11-20T05:46:10.887Z,67.9
2022-11-20T05:51:06.122Z,67
2022-11-20T05:56:00.964Z,66.1
2022-11-20T06:00:55.981Z,65.7
2022-11-20T06:05:51.106Z,64.6
2022-11-20T06:10:45.977Z,64.5
2022-11-20T06:15:40.900Z,64
2022-11-20T06:20:40.869Z,64.3
2022-11-20T06:25:30.411Z,63.9
2022-11-20T06:30:25.161Z,63.6
2022-11-20T06:35:19.984Z,63.3
2022-11-20T06:40:14.677Z,63.5
2022-11-20T06:45:09.325Z,64.2
2022-11-20T06:50:04.443Z,63.4
2022-11-20T06:54:59.115Z,64.4
2022-11-20T06:59:53.747Z,64.5
2022-11-20T07:04:49.087Z,63.3
2022-11-20T07:09:43.714Z,63
2022-11-20T07:14:37.649Z,63.2
2022-11-20T07:19:32.349Z,63.2
2022-11-20T07:24:27.163Z,64.1
2022-11-20T07:29:22.509Z,63.1
2022-11-20T07:34:24.546Z,62.7
2022-11-20T07:39:18.941Z,63.9
2022-11-20T07:44:13.533Z,64.4
2022-11-20T07:49:08.633Z,63.4
2022-11-20T07:54:03.279Z,63.5
2022-11-20T07:58:57.507Z,63.2
2022-11-20T08:03:52.403Z,62.8
2022-11-20T08:08:47.403Z,62.2
2022-11-20T08:13:42.449Z,61
2022-11-20T08:18:37.273Z,61.2
2022-11-20T08:23:32.380Z,60.6
2022-11-20T08:28:27.400Z,59.6
2022-11-20T08:33:22.283Z,59.8
2022-11-20T08:38:16.235Z,60.5
2022-11-20T08:43:10.598Z,60.2
2022-11-20T08:48:05.450Z,59.6
2022-11-20T08:53:00.266Z,59.8
2022-11-20T08:57:54.701Z,54.8
2022-11-20T09:02:50.084Z,60.3
2022-11-20T09:07:44.999Z,59.1
2022-11-20T09:12:39.770Z,59.2
2022-11-20T09:17:34.761Z,59.2
2022-11-20T09:22:29.631Z,59.1
2022-11-20T09:27:24.282Z,59.3
2022-11-20T09:32:19.038Z,59.5
2022-11-20T09:37:12.512Z,57
2022-11-20T09:42:07.061Z,58.7
2022-11-20T09:47:01.861Z,58.9
2022-11-20T09:51:56.551Z,59.7
2022-11-20T09:56:51.272Z,60.1
2022-11-20T10:01:46.207Z,60.6
2022-11-20T10:06:41.147Z,61
2022-11-20T10:11:35.689Z,61.2
2022-11-20T10:16:29.759Z,61.7
2022-11-20T10:21:24.231Z,62
2022-11-20T10:26:18.863Z,62
2022-11-20T10:31:13.444Z,61.9
2022-11-20T10:36:08.185Z,62.1
2022-11-20T10:41:03.125Z,61.9
2022-11-20T10:45:57.907Z,61.7
2022-11-20T10:50:52.603Z,61.2
2022-11-20T10:55:47.694Z,61
2022-11-20T11:00:42.785Z,61.3
2022-11-20T11:05:37.682Z,60.7
2022-11-20T11:10:32.553Z,60.7
2022-11-20T11:15:27.524Z,60.3
2022-11-20T11:20:22.532Z,60.1
2022-11-20T11:25:17.332Z,59.7
2022-11-20T11:30:12.175Z,59.7
2022-11-20T11:35:06.944Z,59.2
2022-11-20T11:40:23.239Z,59.3
2022-11-20T11:44:56.711Z,59.3
2022-11-20T11:49:51.491Z,59.4
2022-11-20T11:54:45.717Z,59.3
2022-11-20T11:59:40.480Z,59.6
2022-11-20T12:04:35.117Z,59.9
2022-11-20T12:09:30.030Z,60
2022-11-20T12:14:23.975Z,60.2
2022-11-20T12:19:18.953Z,60.2
2022-11-20T12:24:13.960Z,60.1
2022-11-20T12:29:08.476Z,60.3
2022-11-20T12:34:03.017Z,60.2
2022-11-20T12:38:57.645Z,60.3
2022-11-20T12:43:52.662Z,60.3
2022-11-20T12:48:47.371Z,60.4
2022-11-20T12:53:42.311Z,60.5
2022-11-20T12:58:37.055Z,60.6
2022-11-20T13:03:31.904Z,61
2022-11-20T13:08:26.656Z,61.2
2022-11-20T13:13:21.682Z,61.8
2022-11-20T13:18:16.390Z,61.8
2022-11-20T13:23:10.622Z,62.5
2022-11-20T13:28:05.133Z,61.8
2022-11-20T13:32:59.819Z,62.5
2022-11-20T13:37:54.399Z,62.8
2022-11-20T13:42:48.984Z,62.6
2022-11-20T13:47:43.760Z,62.5
2022-11-20T13:52:37.786Z,62.7
2022-11-20T13:57:32.341Z,62.6
2022-11-20T14:02:27.525Z,61.9
2022-11-20T14:07:22.245Z,62.6
2022-11-20T14:12:17.163Z,62
2022-11-20T14:17:12.183Z,62.2
2022-11-20T14:22:07.126Z,62
2022-11-20T14:27:02.147Z,62.1
2022-11-20T14:31:57.107Z,61.4
2022-11-20T14:36:52.293Z,61.2
2022-11-20T14:41:47.246Z,60.7
2022-11-20T14:46:42.094Z,60.5
2022-11-20T14:51:37.033Z,60.1
2022-11-20T14:56:32.208Z,59.5
2022-11-20T15:01:27.097Z,59.3
2022-11-20T15:06:22.123Z,59.6
2022-11-20T15:11:16.944Z,59.3
2022-11-20T15:16:11.909Z,59.4
2022-11-20T15:21:06.662Z,59.2
2022-11-20T15:26:01.554Z,59.6
2022-11-20T15:30:56.268Z,59.2
2022-11-20T15:35:51.072Z,59
2022-11-20T15:40:45.970Z,59.3
2022-11-20T15:45:41.341Z,59.3
2022-11-20T15:50:35.199Z,59.4
2022-11-20T15:55:29.137Z,59.7
2022-11-20T16:00:23.994Z,59.6
2022-11-20T16:05:18.542Z,59.6
2022-11-20T16:10:13.526Z,59.8
2022-11-20T16:15:13.441Z,60.2
2022-11-20T16:20:03.074Z,60.2
2022-11-20T16:24:57.701Z,60.3
2022-11-20T16:29:52.272Z,60.1
2022-11-20T16:34:46.791Z,60.2
2022-11-20T16:39:41.446Z,60.1
2022-11-20T16:44:36.176Z,60.3
2022-11-20T16:49:30.995Z,60.6
2022-11-20T16:54:26.100Z,60.6
2022-11-20T16:59:20.336Z,60.5
2022-11-20T17:04:14.436Z,60.8
2022-11-20T17:09:08.800Z,60.9
2022-11-20T17:14:03.476Z,61.2
2022-11-20T17:19:02.465Z,61.3
2022-11-20T17:23:52.425Z,61.3
2022-11-20T17:28:47.229Z,61.3
2022-11-20T17:33:42.032Z,61.5
2022-11-20T17:38:36.993Z,61.5
2022-11-20T17:43:35.612Z,61.1
2022-11-20T17:48:26.686Z,60.4
2022-11-20T17:53:21.760Z,60.2
2022-11-20T17:58:16.491Z,59.8
2022-11-20T18:03:11.357Z,59.5
2022-11-20T18:08:06.441Z,59.4
2022-11-20T18:13:01.791Z,58.8
2022-11-20T18:17:56.523Z,58.4
2022-11-20T18:22:51.624Z,58
2022-11-20T18:27:45.857Z,57
2022-11-20T18:32:40.730Z,56.9
2022-11-20T18:37:35.331Z,57
2022-11-20T18:42:30.369Z,56.9
2022-11-20T18:47:25.099Z,56.8
2022-11-20T18:52:20.028Z,57
2022-11-20T18:57:14.878Z,57.2
2022-11-20T19:02:09.685Z,57.1
2022-11-20T19:07:04.417Z,57.3
2022-11-20T19:11:59.369Z,57.2
2022-11-20T19:16:54.290Z,57.3
2022-11-20T19:21:48.107Z,57.6
2022-11-20T19:26:43.044Z,58.5
2022-11-20T19:31:37.178Z,58.5
2022-11-20T19:36:32.105Z,59.5
2022-11-20T19:41:26.768Z,59.1
2022-11-20T19:46:21.988Z,59.3
2022-11-20T19:51:17.149Z,59.1
2022-11-20T19:56:11.806Z,60
2022-11-20T20:01:06.401Z,60
2022-11-20T20:06:01.057Z,59.9
2022-11-20T20:10:59.431Z,60
2022-11-20T20:15:50.416Z,60.5
2022-11-20T20:20:44.985Z,60.4
2022-11-20T20:25:39.754Z,60.4
2022-11-20T20:30:34.236Z,60.2
2022-11-20T20:35:28.465Z,60.7
2022-11-20T20:40:23.212Z,60.8
2022-11-20T20:45:18.240Z,60.9
2022-11-20T20:50:12.997Z,61
2022-11-20T20:55:07.478Z,61.2
2022-11-20T21:00:01.628Z,61.5
2022-11-20T21:04:59.218Z,61.5
2022-11-20T21:09:51.331Z,61.7
2022-11-20T21:14:46.343Z,61.7
2022-11-20T21:19:40.824Z,61.8
2022-11-20T21:24:35.593Z,61.8
2022-11-20T21:29:30.276Z,62.2
2022-11-20T21:34:24.761Z,62.2
2022-11-20T21:39:19.348Z,62.2
2022-11-20T21:49:09.141Z,62.9
2022-11-20T21:54:03.116Z,62.7
2022-11-20T21:58:57.515Z,62.7
2022-11-20T22:03:52.239Z,62.6
2022-11-20T22:08:47.242Z,62.9
2022-11-20T22:13:41.230Z,62.4
2022-11-20T22:18:36.380Z,62.5
2022-11-20T22:23:30.955Z,61.9
2022-11-20T22:28:25.717Z,61.9
2022-11-20T22:33:20.645Z,62
2022-11-20T22:38:14.465Z,62.2
2022-11-20T22:43:09.270Z,62.2
2022-11-20T22:48:03.986Z,62.4
2022-11-20T22:52:57.994Z,62.5
2022-11-20T22:57:52.909Z,62.4
2022-11-20T23:02:47.569Z,62.3
2022-11-20T23:07:42.398Z,62.8
2022-11-20T23:12:37.142Z,62.6
2022-11-20T23:17:31.005Z,62.6
2022-11-20T23:22:25.665Z,62.8
2022-11-20T23:27:22.095Z,62.7
2022-11-20T23:32:15.131Z,63.2
2022-11-20T23:37:09.821Z,63.3
2022-11-20T23:42:04.539Z,63.4
2022-11-20T23:46:59.145Z,63.7
2022-11-20T23:51:53.963Z,63.8
2022-11-20T23:56:48.661Z,64
